Terminal Aerodrome Forecast
Issued by NWS

Home | Current Version | Previous Version | Text Only | Print | Product List | Glossary On
Versions: 1 2 3 4 5 6 7 8 9 10 11 12 13 14 15 16 17 18 19
000
FTUS44 KJAN 310300 AAA
TAFHKS
TAF AMD
KHKS 310343Z 3104/3124 15009KT P6SM BKN007
      TEMPO 3104/3106 SCT007 OVC120
     FM311600 19007KT P6SM BKN025 BKN050
     FM311730 20008KT P6SM SCT025 BKN050=

USA.gov is the U.S. government's official web portal to all federal, state and local government web resources and services.